Main page
METAR-TAF:

METAR-TAF

Airports :

Colmenar Viejo, Spain

latitude: 40-39N, longitude: 003-44W, elevation: -999 m

Current weather observation

The report was made 1 hour and 18 minutes ago, at 18:00 UTC
Wind 5 kt from the East/Northeast
Temperature 8°C
Humidity 100%
Pressure 1012 hPa
Visibility 10 km or more
Few clouds at a height of 1000 ft
Broken clouds at a height of 3000 ft
light rain

METAR: LECV 181800Z 06005KT 9999 -RA FEW010 BKN030 08/08 Q1012

Time: 21:18 (19:18 UTC)

Forecast

The report was made 2 hours and 18 minutes ago, at 17:00 UTC
Forecast valid from 18 at 18 UTC to 19 at 03 UTC
Wind 4 kt from variable directions
Visibility 10 km or more
Scattered clouds at a height of 1000 ft
Broken clouds at a height of 2000 ft
Probability 30% :
Temporary
from 18 at 18 UTC to 18 at 22 UTC
Visibility: 4000 m
Broken clouds at a height of 400 ft
rain

TAF: LECV 181700Z 1818/1903 VRB04KT 9999 SCT010 BKN020 PROB30 TEMPO 1818/1822 4000 RA BKN004

Weather observations and forecasts of more than 4000 airports (METAR and TAF reports).

The available stations are represented by yellow and red dots on the map.

Hover mouse over dot to see the name of the station.

Then click to see weather observations and forecasts.

To change the map : click on the green buttons with a black cross to zoom in, on the green button with a dash to zoom out, or on the green arrows for adjacent maps.


METAR-TAF: